Time;durP1;ratioP1;P1;durP2;ratioP2;P2;SDS_P1;SDS_P2;PMS_P1;PMS_P2;Temp;Humidity;BMP_temperature;BMP_pressure;BME280_temperature;BME280_humidity;BME280_pressure;Samples;Min_cycle;Max_cycle;Signal;HPM_P1;HPM_P2
2022/04/20 00:00:52;;;;;;;8.68;3.92;;;11.40;99.90;;;;;;5061033;28;20118;-74
2022/04/20 00:03:19;;;;;;;15.93;5.30;;;11.40;99.90;;;;;;5078846;28;20127;-76
2022/04/20 00:05:47;;;;;;;13.38;4.80;;;11.50;99.90;;;;;;5072852;28;20171;-76
2022/04/20 00:08:14;;;;;;;12.98;4.80;;;11.50;99.90;;;;;;5059549;28;20075;-76
2022/04/20 00:10:42;;;;;;;7.28;4.55;;;11.50;99.90;;;;;;5069290;28;20127;-76
2022/04/20 00:13:10;;;;;;;8.98;4.35;;;11.50;99.90;;;;;;5048620;28;20048;-76
2022/04/20 00:15:39;;;;;;;11.20;4.78;;;11.50;99.90;;;;;;5049799;28;20063;-75
2022/04/20 00:18:06;;;;;;;7.35;4.07;;;11.60;99.90;;;;;;5054920;28;20050;-76
2022/04/20 00:20:34;;;;;;;10.38;4.65;;;11.60;99.90;;;;;;5065919;28;20044;-76
2022/04/20 00:23:01;;;;;;;8.40;5.45;;;11.60;99.90;;;;;;5102754;28;20519;-76
2022/04/20 00:25:29;;;;;;;10.18;5.25;;;11.50;99.90;;;;;;5069373;28;20057;-76
2022/04/20 00:27:57;;;;;;;15.60;4.82;;;11.40;99.90;;;;;;5040540;28;20045;-76
2022/04/20 00:30:24;;;;;;;10.27;5.40;;;11.40;99.90;;;;;;5047548;28;20072;-76
2022/04/20 00:32:52;;;;;;;15.00;5.80;;;11.40;99.90;;;;;;5063143;28;20044;-76
2022/04/20 00:35:19;;;;;;;9.48;5.28;;;11.50;99.90;;;;;;5066673;28;20692;-76
2022/04/20 00:37:48;;;;;;;15.20;5.70;;;11.50;99.90;;;;;;5055943;28;20120;-76
2022/04/20 00:40:15;;;;;;;10.65;5.28;;;11.60;99.90;;;;;;5069117;28;20147;-76
2022/04/20 00:42:44;;;;;;;8.68;5.43;;;11.60;99.90;;;;;;5049458;28;22623;-76
2022/04/20 00:45:12;;;;;;;10.80;4.43;;;11.60;99.90;;;;;;5050555;28;20047;-77
2022/04/20 00:47:43;;;;;;;12.23;5.25;;;11.60;99.90;;;;;;5041369;28;20485;-75
2022/04/20 00:50:14;;;;;;;13.88;6.15;;;11.60;99.90;;;;;;5030194;28;20529;-76
2022/04/20 00:52:42;;;;;;;9.13;4.80;;;11.50;99.90;;;;;;5082276;28;20101;-76
2022/04/20 00:55:31;;;;;;;9.18;4.93;;;11.50;99.90;;;;;;5054196;28;20047;-76
2022/04/20 00:58:02;;;;;;;15.48;6.97;;;11.40;99.90;;;;;;5083957;28;20035;-76
2022/04/20 01:00:33;;;;;;;13.27;5.70;;;11.50;99.90;;;;;;5040231;28;20134;-76
2022/04/20 01:03:01;;;;;;;9.77;4.90;;;11.40;99.90;;;;;;5087038;28;20050;-76
2022/04/20 01:05:49;;;;;;;8.05;4.65;;;11.50;99.90;;;;;;5063395;28;20841;-76
2022/04/20 01:08:34;;;;;;;8.93;4.78;;;11.60;99.90;;;;;;5060511;28;20102;-77
2022/04/20 01:11:22;;;;;;;7.43;4.50;;;11.60;99.90;;;;;;5058779;28;20052;-77
2022/04/20 01:14:09;;;;;;;14.25;5.05;;;11.60;99.90;;;;;;5078730;28;20048;-77
2022/04/20 01:17:09;;;;;;;8.60;4.28;;;11.60;99.90;;;;;;5045263;28;20607;-77
2022/04/20 01:19:54;;;;;;;6.03;4.72;;;11.70;99.90;;;;;;5082120;28;20118;-77
2022/04/20 01:22:41;;;;;;;9.27;5.57;;;11.60;99.90;;;;;;5084408;28;20128;-77
2022/04/20 01:25:42;;;;;;;8.57;4.20;;;11.60;99.90;;;;;;5066265;28;20538;-77
2022/04/20 01:28:34;;;;;;;9.13;4.63;;;11.60;99.90;;;;;;5064885;28;20127;-77
2022/04/20 01:31:17;;;;;;;9.80;4.78;;;11.60;99.90;;;;;;5042902;28;20394;-76
2022/04/20 01:34:13;;;;;;;9.63;4.15;;;11.60;99.90;;;;;;5056030;28;20448;-76
2022/04/20 01:36:41;;;;;;;10.50;5.93;;;11.60;99.90;;;;;;5079391;28;20059;-75
2022/04/20 01:39:09;;;;;;;9.35;5.68;;;11.60;99.90;;;;;;5083150;28;20465;-75
2022/04/20 01:41:38;;;;;;;10.20;5.82;;;11.70;99.90;;;;;;5051635;28;20094;-75
2022/04/20 01:44:06;;;;;;;11.60;4.13;;;11.60;99.90;;;;;;5040242;28;20078;-75
2022/04/20 01:46:59;;;;;;;11.63;4.88;;;11.60;99.90;;;;;;5039101;28;20148;-75
2022/04/20 01:49:40;;;;;;;6.88;4.15;;;11.60;99.90;;;;;;5060515;28;20630;-75
2022/04/20 01:52:25;;;;;;;11.88;5.78;;;11.60;99.90;;;;;;5062817;28;20074;-75
2022/04/20 01:55:12;;;;;;;7.85;4.90;;;11.60;99.90;;;;;;5093753;28;20142;-76
2022/04/20 01:58:05;;;;;;;8.05;5.07;;;11.70;99.90;;;;;;5107714;28;20062;-75
2022/04/20 02:00:50;;;;;;;14.02;5.07;;;11.70;99.90;;;;;;5062488;28;20100;-76
2022/04/20 02:03:36;;;;;;;8.48;4.25;;;11.50;99.90;;;;;;5062388;28;20051;-75
2022/04/20 02:06:10;;;;;;;8.43;4.03;;;11.40;99.90;;;;;;5060156;28;20775;-75
2022/04/20 02:08:49;;;;;;;8.73;4.60;;;11.20;99.90;;;;;;5061500;28;20047;-76
2022/04/20 02:11:23;;;;;;;21.10;6.22;;;11.20;99.90;;;;;;5075417;28;20120;-76
2022/04/20 02:14:03;;;;;;;11.57;5.20;;;11.30;99.90;;;;;;5093380;28;20139;-76
2022/04/20 02:16:32;;;;;;;10.63;5.22;;;11.30;99.90;;;;;;5076690;28;20443;-76
2022/04/20 02:19:19;;;;;;;15.67;4.70;;;11.40;99.90;;;;;;5079211;28;20053;-76
2022/04/20 02:21:57;;;;;;;12.23;4.35;;;11.50;99.90;;;;;;5075970;28;20112;-76
2022/04/20 02:24:25;;;;;;;16.48;6.18;;;11.50;99.90;;;;;;5068670;28;20067;-76
2022/04/20 02:26:52;;;;;;;8.68;4.65;;;11.50;99.90;;;;;;5072218;28;20135;-75
2022/04/20 02:29:20;;;;;;;10.57;4.80;;;11.60;99.90;;;;;;5072644;28;20040;-76
2022/04/20 02:31:48;;;;;;;10.18;5.07;;;11.60;99.90;;;;;;5039527;28;20054;-76
2022/04/20 02:34:15;;;;;;;6.10;4.35;;;11.60;99.90;;;;;;5055740;28;20052;-76
2022/04/20 02:36:44;;;;;;;8.90;4.55;;;11.60;99.90;;;;;;5072696;28;20090;-75
2022/04/20 02:39:12;;;;;;;11.77;5.15;;;11.60;99.90;;;;;;5056109;28;20044;-76
2022/04/20 02:41:42;;;;;;;9.95;4.35;;;11.60;99.90;;;;;;5072564;28;20052;-75
2022/04/20 02:44:10;;;;;;;18.90;6.32;;;11.50;99.90;;;;;;5055874;28;20122;-75
2022/04/20 02:46:37;;;;;;;13.32;6.35;;;11.50;99.90;;;;;;5072811;28;20044;-75
2022/04/20 02:49:05;;;;;;;15.07;6.47;;;11.50;99.90;;;;;;5056080;28;20528;-75
2022/04/20 02:51:32;;;;;;;12.70;4.65;;;11.50;99.90;;;;;;5055968;28;20123;-75
2022/04/20 02:54:01;;;;;;;18.65;4.68;;;11.50;99.90;;;;;;5072331;28;20509;-75
2022/04/20 02:56:31;;;;;;;11.27;6.10;;;11.60;99.90;;;;;;5056359;28;20410;-76
2022/04/20 02:58:59;;;;;;;10.93;6.03;;;11.60;99.90;;;;;;5055463;28;20450;-78
2022/04/20 03:01:30;;;;;;;8.88;4.75;;;11.60;99.90;;;;;;5065570;28;20040;-75
2022/04/20 03:04:01;;;;;;;14.57;5.72;;;11.70;99.90;;;;;;5055546;28;20105;-75
2022/04/20 03:06:32;;;;;;;15.27;6.95;;;11.70;99.90;;;;;;5039466;28;20060;-75
2022/04/20 03:09:05;;;;;;;14.05;5.45;;;11.70;99.90;;;;;;5055630;28;20059;-76
2022/04/20 03:11:37;;;;;;;11.05;5.78;;;11.70;99.90;;;;;;5054912;28;20060;-76
2022/04/20 03:14:05;;;;;;;13.15;6.05;;;11.70;99.90;;;;;;5054183;28;20055;-76
2022/04/20 03:16:33;;;;;;;11.93;5.07;;;11.70;99.90;;;;;;5056032;28;20036;-76
2022/04/20 03:19:06;;;;;;;14.98;4.80;;;11.70;99.90;;;;;;5056663;28;20366;-76
2022/04/20 03:21:34;;;;;;;11.23;5.38;;;11.60;99.90;;;;;;5055458;28;20044;-76
2022/04/20 03:24:03;;;;;;;9.90;4.82;;;11.60;99.90;;;;;;5038748;28;20125;-76
2022/04/20 03:26:45;;;;;;;10.07;4.57;;;11.60;99.90;;;;;;5055433;28;20052;-76
2022/04/20 03:29:34;;;;;;;38.80;7.45;;;11.70;99.90;;;;;;5071740;28;20410;-76
2022/04/20 03:32:14;;;;;;;13.52;5.88;;;11.70;99.90;;;;;;5055688;28;20117;-76
2022/04/20 03:34:42;;;;;;;14.20;6.53;;;11.70;99.90;;;;;;5038953;28;20048;-75
2022/04/20 03:37:12;;;;;;;13.45;5.38;;;11.70;99.90;;;;;;5039553;28;20056;-75
2022/04/20 03:39:41;;;;;;;8.60;4.38;;;11.70;99.90;;;;;;5073606;28;20040;-75
2022/04/20 03:42:09;;;;;;;8.70;5.15;;;11.70;99.90;;;;;;5059383;28;20044;-75
2022/04/20 03:44:37;;;;;;;8.88;4.70;;;11.60;99.90;;;;;;5075965;28;20059;-75
2022/04/20 03:47:05;;;;;;;16.55;4.93;;;11.60;99.90;;;;;;5093873;28;20048;-75
2022/04/20 03:49:32;;;;;;;15.25;5.28;;;11.60;99.90;;;;;;5076186;28;20067;-75
2022/04/20 03:52:06;;;;;;;9.07;5.20;;;11.50;99.90;;;;;;5076338;28;20080;-75
2022/04/20 03:54:35;;;;;;;17.08;5.72;;;11.40;99.90;;;;;;5059550;28;20050;-75
2022/04/20 03:57:04;;;;;;;10.20;4.88;;;11.40;99.90;;;;;;5042693;28;20047;-76
2022/04/20 03:59:39;;;;;;;11.38;5.00;;;11.40;99.90;;;;;;5059946;28;20040;-75
2022/04/20 04:02:08;;;;;;;10.40;5.55;;;11.40;99.90;;;;;;5063707;28;20041;-75
2022/04/20 04:04:43;;;;;;;13.50;6.00;;;11.40;99.90;;;;;;5063029;28;20093;-76
2022/04/20 04:07:32;;;;;;;9.48;5.18;;;11.50;99.90;;;;;;5054268;28;20075;-76
2022/04/20 04:10:02;;;;;;;19.55;5.75;;;11.50;99.90;;;;;;5051525;28;20044;-76
2022/04/20 04:12:34;;;;;;;11.98;5.57;;;11.50;99.90;;;;;;5047827;28;20437;-76
2022/04/20 04:15:05;;;;;;;9.48;5.30;;;11.40;99.90;;;;;;5068830;28;20481;-75
2022/04/20 04:17:34;;;;;;;14.13;5.65;;;11.40;99.90;;;;;;5063396;28;20044;-77
2022/04/20 04:20:04;;;;;;;6.85;4.35;;;11.40;99.90;;;;;;5080960;28;20451;-75
2022/04/20 04:22:32;;;;;;;17.73;7.35;;;11.30;99.90;;;;;;5057233;28;20047;-76
2022/04/20 04:25:18;;;;;;;14.02;6.43;;;11.30;99.90;;;;;;5044566;28;20044;-75
2022/04/20 04:27:47;;;;;;;10.82;6.25;;;11.30;99.90;;;;;;5082575;28;20056;-75
2022/04/20 04:30:15;;;;;;;13.15;5.20;;;11.30;99.90;;;;;;5074404;28;20044;-75
2022/04/20 04:32:53;;;;;;;9.05;5.20;;;11.40;99.90;;;;;;5074248;28;20051;-75
2022/04/20 04:35:22;;;;;;;14.57;5.85;;;11.40;99.90;;;;;;5042374;28;20657;-75
2022/04/20 04:37:50;;;;;;;10.32;6.47;;;11.50;99.90;;;;;;5074719;28;20044;-75
2022/04/20 04:40:22;;;;;;;14.68;5.68;;;11.50;99.90;;;;;;5042111;28;20480;-75
2022/04/20 04:42:51;;;;;;;10.85;5.55;;;11.60;99.90;;;;;;5058407;28;20444;-75
2022/04/20 04:51:00;;;;;;;14.43;5.50;;;11.80;99.90;;;;;;5074197;28;20128;-75
2022/04/20 04:53:27;;;;;;;11.10;5.38;;;11.90;99.90;;;;;;5074181;28;20059;-76
2022/04/20 04:55:58;;;;;;;14.18;6.45;;;12.00;99.90;;;;;;5056119;28;20036;-75
2022/04/20 04:58:26;;;;;;;9.30;5.10;;;12.10;99.90;;;;;;5057773;28;20063;-75
2022/04/20 05:00:53;;;;;;;15.23;5.50;;;12.20;99.90;;;;;;5057552;28;20040;-75
2022/04/20 05:03:25;;;;;;;13.88;6.13;;;12.20;99.90;;;;;;5058298;28;20042;-75
2022/04/20 05:05:53;;;;;;;11.90;5.68;;;12.20;99.90;;;;;;5057304;28;20588;-75
2022/04/20 05:08:41;;;;;;;9.88;5.22;;;12.30;99.90;;;;;;5074082;28;20152;-76
2022/04/20 05:11:08;;;;;;;8.43;4.85;;;12.50;99.90;;;;;;5057549;28;20448;-75
2022/04/20 05:13:36;;;;;;;17.27;7.75;;;12.60;99.90;;;;;;5074089;28;20089;-75
2022/04/20 05:16:04;;;;;;;11.85;5.03;;;12.60;99.90;;;;;;5074303;28;20032;-75
2022/04/20 05:18:32;;;;;;;7.00;4.60;;;12.60;99.90;;;;;;5040125;28;20048;-76
2022/04/20 05:21:00;;;;;;;11.35;5.32;;;12.60;99.90;;;;;;5040452;28;20079;-76
2022/04/20 05:23:28;;;;;;;10.15;5.35;;;12.70;99.90;;;;;;5057132;28;20054;-75
2022/04/20 05:25:56;;;;;;;8.73;5.20;;;12.80;99.90;;;;;;5040472;28;20044;-75
2022/04/20 05:28:24;;;;;;;10.38;4.72;;;12.90;99.90;;;;;;5057195;28;20044;-75
2022/04/20 05:30:52;;;;;;;18.45;4.75;;;13.00;99.90;;;;;;5073726;28;20151;-75
2022/04/20 05:33:19;;;;;;;12.20;5.88;;;13.10;99.90;;;;;;5056633;28;20047;-76
2022/04/20 05:35:48;;;;;;;9.02;5.72;;;13.10;99.90;;;;;;5040009;28;20101;-75
2022/04/20 05:43:49;;;;;;;11.35;4.93;;;13.60;99.90;;;;;;5056685;28;20067;-75
2022/04/20 05:46:24;;;;;;;10.68;4.40;;;13.70;99.90;;;;;;5056665;28;20055;-76
2022/04/20 05:48:57;;;;;;;10.35;4.25;;;13.80;99.90;;;;;;5073126;28;20043;-75
2022/04/20 05:51:25;;;;;;;8.27;4.70;;;13.80;99.90;;;;;;5055745;28;20048;-75
2022/04/20 05:53:53;;;;;;;8.88;4.15;;;13.90;99.90;;;;;;5091357;28;20131;-76
2022/04/20 05:56:21;;;;;;;8.73;4.00;;;14.10;99.90;;;;;;5040287;28;20079;-75
2022/04/20 05:58:52;;;;;;;27.48;4.20;;;14.10;99.90;;;;;;5056404;28;20040;-75
2022/04/20 06:01:22;;;;;;;7.85;4.20;;;14.10;99.90;;;;;;5056218;28;20097;-75
2022/04/20 06:04:07;;;;;;;7.60;4.45;;;14.20;99.90;;;;;;5058743;28;20102;-76
2022/04/20 06:06:37;;;;;;;15.18;4.00;;;14.20;99.90;;;;;;5055551;28;20470;-76
2022/04/20 06:09:10;;;;;;;13.70;4.88;;;14.30;99.90;;;;;;5055976;28;20451;-76
2022/04/20 06:11:46;;;;;;;9.95;4.07;;;14.50;99.90;;;;;;5056256;28;20097;-75
2022/04/20 06:14:20;;;;;;;8.80;4.20;;;14.70;99.90;;;;;;5056131;28;20524;-77
2022/04/20 06:16:55;;;;;;;7.35;3.92;;;14.80;99.90;;;;;;5057094;28;20177;-75
2022/04/20 06:19:31;;;;;;;13.70;4.07;;;14.90;99.90;;;;;;5040504;28;20213;-76
2022/04/20 06:22:06;;;;;;;15.68;4.95;;;15.00;99.90;;;;;;5040496;28;20402;-76
2022/04/20 06:24:47;;;;;;;11.02;4.18;;;15.00;99.90;;;;;;5040132;28;20059;-76
2022/04/20 06:27:41;;;;;;;12.32;4.47;;;15.10;99.90;;;;;;5073752;28;20417;-75
2022/04/20 06:30:14;;;;;;;16.45;4.50;;;15.20;99.90;;;;;;5073738;28;20818;-76
2022/04/20 06:33:08;;;;;;;12.95;3.92;;;15.30;99.90;;;;;;5034342;28;20189;-76
2022/04/20 06:35:42;;;;;;;8.57;4.03;;;15.40;99.90;;;;;;5056785;28;20390;-75
2022/04/20 06:38:15;;;;;;;9.57;4.15;;;15.50;99.90;;;;;;5072118;28;20151;-76
2022/04/20 06:41:01;;;;;;;8.20;4.65;;;15.40;99.90;;;;;;5055158;28;20094;-76
2022/04/20 06:44:00;;;;;;;15.05;3.38;;;15.50;99.90;;;;;;5044435;28;20087;-76
2022/04/20 06:46:30;;;;;;;7.53;3.55;;;15.80;99.90;;;;;;5056572;28;20054;-76
2022/04/20 06:49:21;;;;;;;13.32;3.90;;;16.00;99.90;;;;;;5072289;28;20225;-75
2022/04/20 07:00:29;;;;;;;9.88;4.18;;;16.70;99.90;;;;;;5072374;28;20060;-76
2022/04/20 07:03:12;;;;;;;10.57;4.15;;;16.70;99.90;;;;;;5055607;28;20055;-77
2022/04/20 07:06:06;;;;;;;12.73;4.30;;;16.70;99.90;;;;;;5054732;28;20066;-75
2022/04/20 07:08:37;;;;;;;9.98;3.38;;;16.60;99.90;;;;;;5072018;28;20043;-77
2022/04/20 07:11:10;;;;;;;7.85;4.63;;;16.70;99.90;;;;;;5054775;28;20087;-76
2022/04/20 07:13:38;;;;;;;8.07;4.15;;;16.90;99.90;;;;;;5056737;28;20121;-76
2022/04/20 07:16:06;;;;;;;7.45;2.70;;;17.10;99.90;;;;;;5058782;28;20042;-76
2022/04/20 07:18:37;;;;;;;8.80;4.00;;;17.20;99.90;;;;;;5059316;28;20044;-76
2022/04/20 07:21:33;;;;;;;7.18;3.80;;;17.10;99.90;;;;;;5058368;28;20052;-75
2022/04/20 07:24:20;;;;;;;15.80;4.88;;;17.10;99.90;;;;;;5061565;28;20063;-76
2022/04/20 07:27:08;;;;;;;9.68;4.85;;;17.10;99.90;;;;;;5062153;28;20078;-75
2022/04/20 07:29:51;;;;;;;8.30;3.65;;;17.10;99.90;;;;;;5075598;28;20406;-76
2022/04/20 07:32:48;;;;;;;11.85;3.47;;;17.00;99.90;;;;;;5071407;28;20059;-78
2022/04/20 07:35:39;;;;;;;9.43;4.03;;;16.90;99.90;;;;;;5067881;28;20083;-77
2022/04/20 07:38:38;;;;;;;7.38;3.83;;;16.80;99.90;;;;;;5021954;28;20079;-77
2022/04/20 07:41:26;;;;;;;10.82;4.07;;;16.90;99.90;;;;;;5041762;28;20068;-78
2022/04/20 07:44:24;;;;;;;5.15;3.30;;;17.10;99.90;;;;;;5039192;28;20053;-75
2022/04/20 07:47:03;;;;;;;8.82;4.82;;;17.30;99.90;;;;;;5039138;28;20060;-77
2022/04/20 07:50:18;;;;;;;7.97;4.20;;;17.30;99.70;;;;;;5051567;28;20045;-76
2022/04/20 07:52:58;;;;;;;12.73;3.75;;;17.40;99.90;;;;;;5055281;28;20106;-76
2022/04/20 07:55:39;;;;;;;17.52;4.07;;;17.60;99.90;;;;;;5056893;28;20048;-76
2022/04/20 07:58:17;;;;;;;8.00;3.85;;;17.50;99.30;;;;;;5039062;28;20075;-76
2022/04/20 08:00:58;;;;;;;6.63;3.40;;;17.60;98.90;;;;;;5055352;28;20032;-76
2022/04/20 08:03:48;;;;;;;7.70;3.95;;;17.50;98.90;;;;;;5049604;28;20468;-77
2022/04/20 08:06:17;;;;;;;7.30;2.90;;;17.60;99.60;;;;;;5054601;28;20056;-78
2022/04/20 08:08:45;;;;;;;8.48;4.07;;;17.80;99.30;;;;;;5038521;28;20056;-79
2022/04/20 08:11:17;;;;;;;9.88;2.72;;;17.90;99.00;;;;;;5055517;28;20143;-78
2022/04/20 08:16:49;;;;;;;6.53;2.90;;;17.90;98.70;;;;;;5037740;28;20040;-78
2022/04/20 08:19:26;;;;;;;6.72;3.25;;;18.00;98.60;;;;;;5072969;28;20044;-77
2022/04/20 08:21:54;;;;;;;5.70;3.90;;;18.00;98.10;;;;;;5054929;28;20053;-77
2022/04/20 08:24:22;;;;;;;7.70;3.95;;;18.00;98.00;;;;;;5054910;28;20040;-77
2022/04/20 08:26:49;;;;;;;5.32;2.53;;;18.10;97.90;;;;;;5053647;28;20044;-77
2022/04/20 08:29:17;;;;;;;10.45;3.90;;;18.20;97.40;;;;;;5037626;28;20059;-78
2022/04/20 08:31:44;;;;;;;6.35;3.08;;;18.30;97.90;;;;;;5037102;28;20041;-77
2022/04/20 08:34:12;;;;;;;6.10;3.17;;;18.30;96.90;;;;;;5056958;28;20059;-77
2022/04/20 08:36:39;;;;;;;7.25;3.67;;;18.30;97.50;;;;;;5021216;28;20101;-78
2022/04/20 08:39:07;;;;;;;17.33;3.92;;;18.30;98.30;;;;;;5053970;28;20506;-78
2022/04/20 08:41:35;;;;;;;15.07;4.05;;;18.40;97.40;;;;;;5037530;28;20056;-77
2022/04/20 08:44:04;;;;;;;6.40;3.05;;;18.30;97.10;;;;;;5071383;28;20574;-77
2022/04/20 08:46:39;;;;;;;7.75;3.60;;;18.40;96.70;;;;;;5037823;28;20043;-77
2022/04/20 08:49:06;;;;;;;8.30;2.90;;;18.50;97.30;;;;;;5054797;28;20071;-75
2022/04/20 08:54:22;;;;;;;6.47;2.70;;;18.80;96.00;;;;;;5053429;28;20506;-75
2022/04/20 08:59:36;;;;;;;6.22;3.00;;;19.00;95.50;;;;;;5037595;28;20049;-75
2022/04/20 09:02:04;;;;;;;9.95;2.90;;;19.10;95.20;;;;;;5053969;28;20101;-76
2022/04/20 09:04:31;;;;;;;7.05;2.45;;;19.00;94.70;;;;;;5020158;28;20449;-76
2022/04/20 09:06:59;;;;;;;14.10;2.88;;;19.20;93.90;;;;;;5036959;28;20176;-72
2022/04/20 09:09:29;;;;;;;6.50;2.60;;;19.40;94.30;;;;;;5071887;28;20055;-70
2022/04/20 09:11:59;;;;;;;7.95;3.63;;;19.30;93.70;;;;;;5071777;28;20092;-71
2022/04/20 09:14:30;;;;;;;7.15;3.38;;;19.30;94.50;;;;;;5037555;28;20046;-72
2022/04/20 09:17:01;;;;;;;4.45;2.63;;;19.50;94.30;;;;;;5037443;28;20041;-71
2022/04/20 09:19:29;;;;;;;5.32;2.42;;;19.50;93.10;;;;;;5037290;28;20147;-71
2022/04/20 09:21:57;;;;;;;5.80;3.25;;;19.40;92.80;;;;;;5047354;28;20414;-70
2022/04/20 09:24:24;;;;;;;8.15;3.25;;;19.30;93.20;;;;;;5037228;28;20060;-70
2022/04/20 09:26:53;;;;;;;11.50;3.45;;;19.30;93.80;;;;;;5058033;28;20399;-72
2022/04/20 09:29:22;;;;;;;6.55;3.33;;;19.30;93.90;;;;;;5037115;28;20062;-73
2022/04/20 09:31:52;;;;;;;9.20;2.95;;;19.10;93.90;;;;;;5046658;28;20063;-71
2022/04/20 09:34:33;;;;;;;6.97;3.45;;;19.00;94.60;;;;;;5053546;28;20094;-71
2022/04/20 09:37:14;;;;;;;7.03;3.63;;;18.90;94.10;;;;;;5052760;28;20044;-71
2022/04/20 09:39:46;;;;;;;7.55;3.88;;;18.90;93.20;;;;;;5053930;28;20575;-71
2022/04/20 09:42:15;;;;;;;5.60;3.17;;;19.00;93.20;;;;;;5053268;28;20171;-72
2022/04/20 09:44:57;;;;;;;15.45;3.38;;;19.20;93.30;;;;;;5053484;28;20051;-71
2022/04/20 09:50:24;;;;;;;13.20;3.28;;;19.40;93.10;;;;;;5053660;28;20091;-72
2022/04/20 09:52:55;;;;;;;7.20;3.13;;;19.50;92.10;;;;;;5020124;28;20052;-72
2022/04/20 09:55:32;;;;;;;6.88;3.00;;;19.40;92.70;;;;;;5052911;28;20526;-72
2022/04/20 09:58:18;;;;;;;5.35;3.38;;;19.40;93.10;;;;;;5053585;28;20053;-72
2022/04/20 10:00:51;;;;;;;8.20;3.15;;;19.30;92.70;;;;;;5036499;28;20052;-74
2022/04/20 10:03:26;;;;;;;7.32;2.40;;;19.30;93.00;;;;;;5052711;28;20059;-72
2022/04/20 10:05:55;;;;;;;8.48;2.60;;;19.40;91.90;;;;;;5052868;28;20131;-71
2022/04/20 10:08:23;;;;;;;5.15;2.70;;;19.40;92.20;;;;;;5036383;28;20058;-76
2022/04/20 10:10:53;;;;;;;4.47;2.63;;;19.30;91.90;;;;;;5035343;28;20056;-73
2022/04/20 10:13:22;;;;;;;7.15;3.22;;;19.40;92.00;;;;;;5018870;28;20109;-72
2022/04/20 10:16:05;;;;;;;7.82;2.70;;;19.50;91.70;;;;;;5051781;28;20090;-73
2022/04/20 10:18:35;;;;;;;6.15;2.85;;;19.50;91.40;;;;;;5052272;28;20051;-72
2022/04/20 10:21:04;;;;;;;4.72;2.83;;;19.80;92.50;;;;;;5020146;28;20106;-72
2022/04/20 10:23:34;;;;;;;5.25;2.42;;;19.80;90.40;;;;;;5069452;28;20041;-71
2022/04/20 10:26:10;;;;;;;6.53;3.13;;;19.70;91.40;;;;;;5035262;28;20514;-75
2022/04/20 10:29:04;;;;;;;7.70;3.55;;;19.50;92.80;;;;;;5035653;28;20523;-72
2022/04/20 10:31:42;;;;;;;7.20;2.70;;;19.50;92.80;;;;;;5052043;28;20044;-72
2022/04/20 10:34:19;;;;;;;5.20;2.45;;;19.50;92.10;;;;;;5052360;28;20430;-72
2022/04/20 10:37:10;;;;;;;4.50;3.00;;;19.60;92.50;;;;;;5037707;28;20052;-72
2022/04/20 10:39:51;;;;;;;10.73;2.85;;;19.70;91.80;;;;;;5037022;28;20529;-72
2022/04/20 10:42:21;;;;;;;7.70;2.85;;;19.70;91.30;;;;;;5034887;28;20445;-73
2022/04/20 10:44:56;;;;;;;7.93;3.10;;;19.80;90.90;;;;;;5034722;28;20486;-71
2022/04/20 10:47:24;;;;;;;7.63;3.05;;;19.80;91.90;;;;;;5051506;28;20071;-72
2022/04/20 10:49:53;;;;;;;5.63;2.72;;;19.90;92.10;;;;;;5069175;28;20047;-71
2022/04/20 10:52:29;;;;;;;3.75;2.17;;;19.90;92.50;;;;;;5035370;28;20041;-73
2022/04/20 10:54:57;;;;;;;;;;;19.70;92.60;;;;;;5052568;28;20825;-71
2022/04/20 10:57:37;;;;;;;7.43;2.58;;;19.80;90.90;;;;;;5069314;28;19939;-72
2022/04/20 11:00:20;;;;;;;8.50;3.28;;;19.80;90.20;;;;;;5051715;28;20053;-72
2022/04/20 11:03:10;;;;;;;5.63;2.85;;;19.80;91.50;;;;;;5051594;28;20079;-71
2022/04/20 11:05:49;;;;;;;4.22;2.80;;;19.80;91.30;;;;;;5050877;28;20052;-75
2022/04/20 11:08:17;;;;;;;6.70;3.40;;;20.10;91.40;;;;;;5069459;28;20048;-73
2022/04/20 11:20:22;;;;;;;8.95;3.33;;;19.60;92.50;;;;;;5006996;28;20052;-74
2022/04/20 11:23:05;;;;;;;7.53;3.40;;;19.70;92.10;;;;;;5045976;28;20059;-72
2022/04/20 11:25:40;;;;;;;4.35;2.90;;;19.80;91.60;;;;;;5051125;28;20048;-72
2022/04/20 11:28:08;;;;;;;7.32;2.40;;;19.80;90.40;;;;;;5035015;28;20051;-72
2022/04/20 11:30:40;;;;;;;5.85;2.30;;;19.70;90.50;;;;;;5051836;28;20067;-72
2022/04/20 11:33:07;;;;;;;3.80;2.22;;;19.60;91.10;;;;;;5067670;28;20595;-76
2022/04/20 11:35:36;;;;;;;6.70;2.67;;;19.60;91.20;;;;;;5051735;28;20044;-71
2022/04/20 11:38:04;;;;;;;11.73;3.55;;;19.60;90.90;;;;;;5069772;28;20040;-72
2022/04/20 11:40:31;;;;;;;4.93;2.97;;;19.70;90.50;;;;;;5051532;28;20490;-71
2022/04/20 11:43:05;;;;;;;7.45;2.38;;;19.70;90.20;;;;;;5051735;28;20094;-71
2022/04/20 11:45:52;;;;;;;5.60;3.33;;;19.40;89.20;;;;;;5068328;28;20098;-71
2022/04/20 11:48:20;;;;;;;11.27;2.85;;;19.50;90.90;;;;;;5068843;28;20051;-70
2022/04/20 11:51:15;;;;;;;7.32;2.83;;;19.60;91.10;;;;;;5051339;28;20060;-72
2022/04/20 11:53:42;;;;;;;8.10;2.85;;;19.70;91.10;;;;;;5034979;28;20045;-72
2022/04/20 11:56:38;;;;;;;7.45;2.78;;;19.90;90.70;;;;;;5034753;28;20060;-71
2022/04/20 11:59:08;;;;;;;5.47;2.75;;;20.10;90.60;;;;;;5051429;28;20056;-72
2022/04/20 12:01:38;;;;;;;6.15;2.78;;;20.10;89.90;;;;;;5037945;28;20044;-71
2022/04/20 12:04:20;;;;;;;7.85;2.88;;;20.10;90.50;;;;;;5039081;28;20395;-72
2022/04/20 12:06:49;;;;;;;11.55;2.75;;;20.00;89.90;;;;;;5037734;28;20060;-71
2022/04/20 12:09:20;;;;;;;4.95;1.98;;;20.10;90.00;;;;;;5058045;28;20055;-71
2022/04/20 12:12:02;;;;;;;5.07;2.72;;;20.10;89.30;;;;;;5059123;28;20064;-72
2022/04/20 12:14:35;;;;;;;5.13;3.17;;;19.80;89.40;;;;;;5058659;28;20052;-71
2022/04/20 12:17:06;;;;;;;6.07;2.65;;;19.80;89.90;;;;;;5041711;28;20052;-71
2022/04/20 12:19:40;;;;;;;5.45;2.38;;;19.70;90.10;;;;;;5074988;28;20032;-69
2022/04/20 12:22:16;;;;;;;5.28;2.33;;;19.90;90.50;;;;;;5058618;28;20405;-70
2022/04/20 12:24:47;;;;;;;6.05;2.70;;;20.10;89.60;;;;;;5075044;28;20097;-72
2022/04/20 12:27:20;;;;;;;9.50;2.83;;;20.10;88.70;;;;;;5058704;28;20047;-70
2022/04/20 12:29:55;;;;;;;;;;;20.30;88.50;;;;;;5059232;28;20036;-70
2022/04/20 12:32:31;;;;;;;6.28;2.45;;;20.40;89.20;;;;;;5042035;28;20351;-71
2022/04/20 12:35:02;;;;;;;;;;;20.20;90.10;;;;;;5068407;28;20043;-70
2022/04/20 12:37:39;;;;;;;7.68;2.42;;;20.20;90.00;;;;;;5039509;28;20018;-71
2022/04/20 12:40:23;;;;;;;4.20;2.85;;;20.10;90.20;;;;;;5035903;28;20048;-70
2022/04/20 12:43:05;;;;;;;5.97;2.70;;;20.10;90.30;;;;;;5057756;28;20051;-70
2022/04/20 12:45:37;;;;;;;5.97;2.90;;;19.80;89.70;;;;;;5059550;28;20070;-69
2022/04/20 12:48:06;;;;;;;5.65;2.65;;;20.00;90.10;;;;;;5073685;28;20052;-72
2022/04/20 12:50:39;;;;;;;4.53;2.88;;;20.30;89.70;;;;;;5068008;28;20036;-71
2022/04/20 12:53:08;;;;;;;5.38;2.47;;;20.30;89.40;;;;;;5055300;28;20052;-71
2022/04/20 13:02:01;;;;;;;5.07;2.50;;;20.30;88.60;;;;;;5081872;28;20066;-71
2022/04/20 13:04:16;;;;;;;5.38;3.05;;;20.30;90.40;;;;;;5056907;28;20057;-72
2022/04/20 13:06:45;;;;;;;5.45;2.55;;;20.10;90.90;;;;;;5025001;28;20478;-70
2022/04/20 13:09:13;;;;;;;6.03;2.58;;;20.00;90.90;;;;;;5056902;28;20068;-70
2022/04/20 13:11:41;;;;;;;3.83;2.20;;;20.00;90.60;;;;;;5063071;28;20040;-71
2022/04/20 13:14:09;;;;;;;4.95;2.55;;;19.70;91.20;;;;;;5040139;28;20053;-70
2022/04/20 13:16:37;;;;;;;5.07;2.70;;;19.60;90.60;;;;;;5037180;28;20052;-71
2022/04/20 13:19:05;;;;;;;5.60;2.33;;;19.60;91.60;;;;;;5071709;28;20050;-70
2022/04/20 13:21:33;;;;;;;4.45;2.95;;;19.60;91.90;;;;;;5063429;28;20389;-70
2022/04/20 13:24:02;;;;;;;4.63;3.25;;;19.60;91.80;;;;;;5038363;28;20055;-71
2022/04/20 13:29:19;;;;;;;5.43;3.03;;;19.60;91.60;;;;;;5041433;28;20138;-72
2022/04/20 13:31:47;;;;;;;3.75;2.08;;;19.60;91.80;;;;;;5062351;28;20498;-72
2022/04/20 13:34:15;;;;;;;3.55;2.53;;;19.60;91.50;;;;;;5056167;28;20036;-70
2022/04/20 13:36:43;;;;;;;3.67;2.30;;;19.60;91.60;;;;;;5082253;28;20501;-71
2022/04/20 13:39:10;;;;;;;4.68;2.22;;;19.40;91.10;;;;;;5071128;28;20044;-71
2022/04/20 13:41:38;;;;;;;4.43;2.58;;;19.40;91.40;;;;;;5062305;28;20047;-72
2022/04/20 13:44:06;;;;;;;4.85;2.38;;;19.40;91.70;;;;;;5038973;28;20052;-70
2022/04/20 13:46:34;;;;;;;5.22;2.42;;;19.40;91.80;;;;;;5053405;28;20124;-71
2022/04/20 13:49:02;;;;;;;6.15;2.97;;;19.50;92.20;;;;;;5071911;28;20044;-70
2022/04/20 13:51:30;;;;;;;4.00;2.05;;;19.50;92.00;;;;;;5062938;28;20048;-70
2022/04/20 13:53:58;;;;;;;5.32;2.33;;;19.40;91.80;;;;;;5037037;28;20048;-70
2022/04/20 13:56:26;;;;;;;6.30;2.80;;;19.20;91.80;;;;;;5063795;28;20059;-71
2022/04/20 13:58:54;;;;;;;5.68;2.60;;;19.00;92.30;;;;;;5070935;28;20501;-70
2022/04/20 14:01:22;;;;;;;5.32;2.60;;;19.00;92.60;;;;;;5025692;28;20437;-71
2022/04/20 14:03:49;;;;;;;5.53;2.03;;;18.90;92.70;;;;;;5020308;28;20048;-70
2022/04/20 14:06:17;;;;;;;4.78;2.58;;;18.90;92.70;;;;;;5052196;28;20813;-71